Flight Track Log - Related Links

Times and Time Zones

All times are in EDT time to prevent confusion due to time zone crossing. See the LOF3376 flight status page for this flight to view local times or setup timezone preferences in your user account.

Time Position Orientation Groundspeed Altitude Reporting Facility
EDT Latitude Longitude Course Direction KTS MPH feet Rate Location/Type
Wed 09:01:06 AM 41.9333 -87.9000 173° South 174 200 2,300  Level Chicago TRACON
Wed 09:02:06 AM 41.8667 -87.9000 180° South 240 276 4,500 1,405 Climbing Chicago TRACON
Wed 09:02:57 AM 41.8206 -87.8881 169° South 239 275 4,900 903 Climbing Chicago Center
Wed 09:03:59 AM 41.7478 -87.8258 147° Southeast 252 290 6,200 2,274 Climbing Chicago Center
Wed 09:05:00 AM 41.5336 -87.3863 159° South  Level Estimated
Wed 09:05:01 AM 41.6869 -87.7775 149° Southeast 253 291 9,600  Level Chicago Center
Wed 09:06:00 AM 41.4438 -87.2831 173° South  Level Estimated
Wed 09:06:03 AM 41.6253 -87.7303 150° Southeast 254 292 12,000  Level Chicago Center
Wed 09:07:05 AM 41.5594 -87.6783 149° Southeast 272 313 14,200 1,839 Climbing Chicago Center
Wed 09:08:07 AM 41.4892 -87.6228 149° Southeast 288 331 15,800 1,512 Climbing Chicago Center
Wed 09:09:08 AM 41.4089 -87.5617 150° Southeast 318 366 17,300 1,659 Climbing Chicago Center
Wed 09:10:10 AM 41.3267 -87.4989 150° Southeast 335 386 19,200 1,984 Climbing Chicago Center
Wed 09:11:12 AM 41.2439 -87.4342 150° Southeast 343 395 21,400 1,839 Climbing Chicago Center
Wed 09:12:14 AM 41.1422 -87.3578 150° Southeast 350 403 23,000 774 Climbing Chicago Center
Wed 09:13:16 AM 41.0467 -87.2858 150° Southeast 392 451 23,000  Level Chicago Center
Wed 09:14:18 AM 40.9439 -87.2069 150° Southeast 425 489 23,000  Level Chicago Center
Wed 09:15:20 AM 40.8372 -87.1261 150° Southeast 441 507 23,000  Level Chicago Center
Wed 09:16:22 AM 40.7314 -87.0478 151° Southeast 438 504 23,000  Level Chicago Center
Wed 09:17:24 AM 40.6131 -86.9583 150° Southeast 432 497 23,000  Level Chicago Center
Wed 09:18:26 AM 40.5094 -86.8797 150° Southeast 428 493 23,000  Level Chicago Center
Wed 09:19:28 AM 40.4053 -86.8033 151° Southeast 427 491 23,000  Level Chicago Center
Wed 09:20:30 AM 40.3014 -86.7264 151° Southeast 427 491 23,000  Level Chicago Center
Wed 09:21:32 AM 40.1969 -86.6492 151° Southeast 429 494 23,000  Level Chicago Center
Wed 09:22:27 AM 40.0914 -86.5711 150° Southeast 429 494 23,000 -718 Level Indianapolis Center
Wed 09:23:29 AM 39.9900 -86.4961 150° Southeast 419 482 21,600 -1,403 Descending Indianapolis Center
Wed 09:24:31 AM 39.8931 -86.4250 151° Southeast 401 461 20,100 -1,403 Descending Indianapolis Center
Wed 09:25:33 AM 39.8081 -86.3433 144° Southeast 378 435 18,700 -1,306 Descending Indianapolis Center
Wed 09:26:35 AM 39.7594 -86.2097 115° Southeast 383 441 17,400 -1,500 Descending Indianapolis Center
Wed 09:27:37 AM 39.7206 -86.0886 113° Southeast 366 421 15,600 -1,500 Descending Indianapolis Center
Wed 09:28:39 AM 39.6808 -85.9697 113° Southeast 358 412 14,300 -774 Descending Indianapolis Center
Wed 09:29:41 AM 39.6339 -85.8306 114° Southeast 357 411 14,000 -768 Descending Indianapolis Center
Wed 09:30:44 AM 39.5950 -85.7150 114° Southeast 349 402 12,700 -1,296 Descending Indianapolis Center
Wed 09:31:46 AM 39.5581 -85.6036 113° Southeast 337 388 11,300 -823 Descending Indianapolis Center
Wed 09:32:48 AM 39.5203 -85.4953 114° Southeast 329 379 11,000 -290 Descending Indianapolis Center
Wed 09:33:50 AM 39.4758 -85.3919 119° Southeast 326 375 10,700 -726 Descending Indianapolis Center
Wed 09:34:52 AM 39.4531 -85.2969 107° East 275 316 9,500 -1,306 Descending Indianapolis Center
Wed 09:35:54 AM 39.4258 -85.1956 109° East 256 295 8,000 -1,403 Descending Indianapolis Center
Wed 09:36:56 AM 39.3967 -85.1122 114° Southeast 254 292 6,600 -1,258 Descending Indianapolis Center
Wed 09:37:58 AM 39.3650 -85.0239 115° Southeast 266 306 5,400 -774 Descending Indianapolis Center
Wed 09:39:00 AM 39.3356 -84.9381 114° Southeast 261 300 5,000 -194 Descending Indianapolis Center
Wed 09:40:02 AM 39.3061 -84.8525 114° Southeast 264 304 5,000  Level Indianapolis Center
Wed 09:40:31 AM 39.2833 -84.8000 119° Southeast 271 312 5,000 -337 Level Cincinnati TRACON
Wed 09:41:31 AM 39.2500 -84.7167 117° Southeast 251 289 4,500 -900 Descending Cincinnati TRACON
Wed 09:42:31 AM 39.2000 -84.6667 142° Southeast 233 268 3,200 -1,300 Descending Cincinnati TRACON

Login

Don't have an account? Register now (free) for customized features, flight alerts, and more!